Council Bluffs, IA

5:42 PM CST on December 17, 2017 (GMT -0600)
Council Bluffs Municipal

Weather History for KCBF - March, 2012

Change the Weather History Date:

Saturday, March 17, 2012

  Actual Average Record
Temperature  
Mean Temperature 70 °F -  
Max Temperature 80 °F 46 °F 80 °F (2012)
Min Temperature 60 °F 29 °F 23 °F (2001)
Cooling Degree Days 5    
Growing Degree Days 20 (Base 50)    
Moisture  
Dew Point 60 °F    
Average Humidity 72    
Maximum Humidity 94    
Minimum Humidity 45    
Precipitation  
Precipitation 0.00 in - - ()
Sea Level Pressure  
Sea Level Pressure 29.77 in    
Wind  
Wind Speed 17 mph (South)    
Max Wind Speed 29 mph    
Max Gust Speed 38 mph    
Visibility 10 miles    
Events      
Averages and records for this station are not official NWS values.
T = Trace of Precipitation, MM = Missing Value Source: NWS Daily Summary

Daily Weather History Graph

Daily Weather History Graph

Search for Another Location

Airport or City:

Trip Planner

Search our weather history database for the weather conditions in past years. The results will help you decide how hot, cold, wet, or windy it might be!

Date:

Astronomy

Mar. 17, 2012 Rise Set
Actual Time 7:30 AM CDT 7:32 PM CDT
Civil Twilight 7:03 AM CDT 8:00 PM CDT
Nautical Twilight 6:30 AM CDT 8:32 PM CDT
Astronomical Twilight 5:58 AM CDT 9:04 PM CDT
Moon 4:35 AM CDT 2:55 PM CDT
Length of Visible Light 12h 56m
Length of Day
12h 01m
Waning Crescent, 23% of the Moon is Illuminated
Mar 17
Waning Crescent
Mar 22
New
Mar 30
First Quarter
Apr 6
Full
Apr 13
Last Quarter

Hourly Weather History & Observations

Time (CDT) Temp. Heat Index Dew Point Humidity Pressure Visibility Wind Dir Wind Speed Gust Speed Precip Events Conditions
12:15 AM 69.8 °F - 59.0 °F 68% 29.83 in 10.0 mi South 16.1 mph - N/A   Overcast
12:35 AM 69.8 °F - 59.0 °F 68% 29.83 in 10.0 mi South 12.7 mph 18.4 mph N/A   Overcast
12:55 AM 68.0 °F - 59.0 °F 73% 29.82 in 10.0 mi South 11.5 mph 17.3 mph N/A   Overcast
1:15 AM 68.0 °F - 60.8 °F 78% 29.82 in 10.0 mi South 15.0 mph 20.7 mph N/A   Overcast
1:35 AM 68.0 °F - 60.8 °F 78% 29.81 in 10.0 mi South 17.3 mph 25.3 mph N/A   Overcast
1:55 AM 68.0 °F - 60.8 °F 78% 29.81 in 10.0 mi South 18.4 mph 26.5 mph N/A   Mostly Cloudy
2:15 AM 68.0 °F - 60.8 °F 78% 29.81 in 10.0 mi South 17.3 mph 24.2 mph N/A   Partly Cloudy
2:35 AM 66.2 °F - 60.8 °F 83% 29.81 in 10.0 mi South 17.3 mph 25.3 mph N/A   Unknown
2:55 AM 66.2 °F - 60.8 °F 83% 29.81 in 10.0 mi South 16.1 mph 21.9 mph N/A   Partly Cloudy
3:15 AM 66.2 °F - 60.8 °F 83% 29.80 in 10.0 mi South 15.0 mph 21.9 mph N/A   Clear
3:35 AM 66.2 °F - 60.8 °F 83% 29.80 in 10.0 mi South 15.0 mph 20.7 mph N/A   Clear
3:55 AM 64.4 °F - 60.8 °F 88% 29.79 in 10.0 mi South 13.8 mph 24.2 mph N/A   Clear
4:15 AM 64.4 °F - 60.8 °F 88% 29.79 in 10.0 mi South 13.8 mph - N/A   Unknown
4:35 AM 62.6 °F - 60.8 °F 94% 29.79 in 10.0 mi South 13.8 mph - N/A   Unknown
4:55 AM 62.6 °F - 60.8 °F 94% 29.79 in 10.0 mi South 11.5 mph 17.3 mph N/A   Clear
5:15 AM 62.6 °F - 59.0 °F 88% 29.79 in 10.0 mi South 12.7 mph - N/A   Clear
5:35 AM 60.8 °F - 59.0 °F 94% 29.79 in 9.0 mi South 12.7 mph - N/A   Unknown
5:55 AM 60.8 °F - 59.0 °F 94% 29.78 in 9.0 mi South 11.5 mph - N/A   Unknown
6:15 AM 62.6 °F - 59.0 °F 88% 29.78 in 10.0 mi South 13.8 mph - N/A   Unknown
6:35 AM 62.6 °F - 59.0 °F 88% 29.78 in 10.0 mi South 17.3 mph - N/A   Unknown
6:55 AM 62.6 °F - 59.0 °F 88% 29.78 in 10.0 mi South 16.1 mph 24.2 mph N/A   Unknown
7:15 AM 62.6 °F - 59.0 °F 88% 29.78 in 10.0 mi South 16.1 mph 24.2 mph N/A   Unknown
7:35 AM 62.6 °F - 59.0 °F 88% 29.78 in 10.0 mi South 16.1 mph - N/A   Clear
7:55 AM 62.6 °F - 59.0 °F 88% 29.79 in 10.0 mi South 13.8 mph - N/A   Partly Cloudy
8:15 AM 62.6 °F - 59.0 °F 88% 29.79 in 10.0 mi South 15.0 mph 21.9 mph N/A   Clear
8:35 AM 62.6 °F - 59.0 °F 88% 29.79 in 10.0 mi SSE 18.4 mph 24.2 mph N/A   Mostly Cloudy
8:55 AM 64.4 °F - 60.8 °F 88% 29.79 in 10.0 mi South 18.4 mph - N/A   Overcast
9:15 AM 64.4 °F - 60.8 °F 88% 29.80 in 10.0 mi South 17.3 mph 23.0 mph N/A   Overcast
9:35 AM 66.2 °F - 60.8 °F 83% 29.80 in 10.0 mi South 17.3 mph 23.0 mph N/A   Overcast
9:55 AM 66.2 °F - 60.8 °F 83% 29.80 in 10.0 mi South 15.0 mph 21.9 mph N/A   Overcast
10:15 AM 68.0 °F - 60.8 °F 78% 29.80 in 10.0 mi South 20.7 mph 29.9 mph N/A   Overcast
10:35 AM 68.0 °F - 60.8 °F 78% 29.79 in 10.0 mi South 20.7 mph - N/A   Overcast
10:55 AM 69.8 °F - 60.8 °F 73% 29.79 in 10.0 mi South 23.0 mph 28.8 mph N/A   Overcast
11:15 AM 68.0 °F - 60.8 °F 78% 29.79 in 10.0 mi South 20.7 mph - N/A   Overcast
11:35 AM 69.8 °F - 60.8 °F 73% 29.79 in 10.0 mi South 18.4 mph 25.3 mph N/A   Overcast
11:55 AM 69.8 °F - 60.8 °F 73% 29.78 in 10.0 mi South 18.4 mph 25.3 mph N/A   Overcast
12:15 PM 71.6 °F - 60.8 °F 69% 29.78 in 10.0 mi South 19.6 mph 26.5 mph N/A   Overcast
12:35 PM 73.4 °F - 60.8 °F 65% 29.78 in 10.0 mi South 19.6 mph 28.8 mph N/A   Overcast
12:55 PM 73.4 °F - 59.0 °F 61% 29.77 in 10.0 mi South 25.3 mph - N/A   Overcast
1:15 PM 75.2 °F - 60.8 °F 61% 29.76 in 10.0 mi South 16.1 mph 31.1 mph N/A   Mostly Cloudy
1:35 PM 77.0 °F - 60.8 °F 57% 29.75 in 10.0 mi South 24.2 mph 32.2 mph N/A   Mostly Cloudy
1:55 PM 77.0 °F - 60.8 °F 57% 29.74 in 10.0 mi South 20.7 mph 29.9 mph N/A   Mostly Cloudy
2:15 PM 78.8 °F - 59.0 °F 51% 29.72 in 10.0 mi South 25.3 mph 31.1 mph N/A   Scattered Clouds
2:35 PM 80.6 °F 81.1 °F 59.0 °F 48% 29.71 in 10.0 mi South 23.0 mph 33.4 mph N/A   Mostly Cloudy
2:55 PM 80.6 °F 81.1 °F 59.0 °F 48% 29.71 in 10.0 mi South 24.2 mph 34.5 mph N/A   Mostly Cloudy
3:15 PM 80.6 °F 81.1 °F 59.0 °F 48% 29.70 in 10.0 mi South 25.3 mph 36.8 mph N/A   Partly Cloudy
3:35 PM 80.6 °F 81.1 °F 59.0 °F 48% 29.69 in 10.0 mi South 28.8 mph - N/A   Scattered Clouds
3:55 PM 80.6 °F 81.1 °F 59.0 °F 48% 29.69 in 10.0 mi South 24.2 mph 33.4 mph N/A   Scattered Clouds
4:15 PM 80.6 °F 81.1 °F 59.0 °F 48% 29.69 in 10.0 mi South 24.2 mph 32.2 mph N/A   Mostly Cloudy
4:35 PM 80.6 °F 81.1 °F 59.0 °F 48% 29.69 in 10.0 mi SSW 26.5 mph 33.4 mph N/A   Scattered Clouds
4:55 PM 78.8 °F - 59.0 °F 51% 29.69 in 10.0 mi South 27.6 mph 36.8 mph N/A   Scattered Clouds
5:15 PM 80.6 °F 81.1 °F 59.0 °F 48% 29.69 in 10.0 mi South 21.9 mph 38.0 mph N/A   Scattered Clouds
5:35 PM 80.6 °F 80.8 °F 57.2 °F 45% 29.69 in 10.0 mi South 21.9 mph 34.5 mph N/A   Scattered Clouds
5:55 PM 80.6 °F 80.8 °F 57.2 °F 45% 29.69 in 10.0 mi South 23.0 mph 33.4 mph N/A   Clear
6:15 PM 78.8 °F - 57.2 °F 47% 29.70 in 10.0 mi South 18.4 mph 31.1 mph N/A   Partly Cloudy
6:35 PM 78.8 °F - 59.0 °F 51% 29.70 in 10.0 mi South 24.2 mph 29.9 mph N/A   Partly Cloudy
6:55 PM 77.0 °F - 59.0 °F 54% 29.71 in 10.0 mi South 17.3 mph 29.9 mph N/A   Scattered Clouds
7:15 PM 75.2 °F - 59.0 °F 57% 29.71 in 10.0 mi South 23.0 mph 31.1 mph N/A   Partly Cloudy
7:35 PM 75.2 °F - 59.0 °F 57% 29.71 in 10.0 mi South 19.6 mph 26.5 mph N/A   Clear
7:55 PM 73.4 °F - 60.8 °F 65% 29.72 in 10.0 mi South 17.3 mph 26.5 mph N/A   Partly Cloudy
8:15 PM 73.4 °F - 60.8 °F 65% 29.73 in 10.0 mi South 18.4 mph 29.9 mph N/A   Scattered Clouds
8:35 PM 71.6 °F - 60.8 °F 69% 29.73 in 10.0 mi South 18.4 mph - N/A   Scattered Clouds
8:55 PM 71.6 °F - 59.0 °F 64% 29.74 in 10.0 mi South 15.0 mph - N/A   Scattered Clouds
9:15 PM 69.8 °F - 59.0 °F 68% 29.75 in 10.0 mi South 16.1 mph - N/A   Unknown
9:35 PM 69.8 °F - 60.8 °F 73% 29.75 in 10.0 mi South 19.6 mph - N/A   Partly Cloudy
9:55 PM 69.8 °F - 60.8 °F 73% 29.76 in 10.0 mi South 18.4 mph 25.3 mph N/A   Scattered Clouds
10:15 PM 68.0 °F - 60.8 °F 78% 29.76 in 10.0 mi South 18.4 mph 26.5 mph N/A   Unknown
10:35 PM 68.0 °F - 60.8 °F 78% 29.76 in 10.0 mi South 16.1 mph 21.9 mph N/A   Unknown
11:15 PM 68.0 °F - 60.8 °F 78% 29.77 in 10.0 mi South 18.4 mph 26.5 mph N/A   Overcast
11:35 PM 68.0 °F - 60.8 °F 78% 29.76 in 10.0 mi South 19.6 mph 27.6 mph N/A   Overcast
11:55 PM 68.0 °F - 60.8 °F 78% 29.77 in 10.0 mi South 17.3 mph 24.2 mph N/A   Overcast